Manville, Wyoming
Current Conditions -  °F | °C
As of 8:15 PM on Monday 20 Oct 2014 (Local Time) from KGUR Reporting Station
Scattered Clouds Scattered Clouds  
Wind Chill: 63°   Ceiling: Unl
Heat Index: 63°   Visibility: 10mi
Dew Point: 40°   Wind: 0mph
Humidity: 44%   Direction: NA
Pressure: 29.98"   Gusts: NA
Location:  42.78°N, 104.62°W
Report Text: KGUR 210215Z AUTO 00000KT 10SM SCT110 17/05 A2998 RMK AO2 T01700045 PWINO
Loading
Personal Weather Stations






























Interactive Weather Map
Tropical Storm Tracking
New forecast layout! Learn more

10-Day Weather Forecast

Advertisements
Track Severe Weather on mobile